Aviation Digital Data Service (ADDS)

Output produced by METARs form (1557 UTC 28 April 2015)
found at http://aviationweather.gov/adds/metars/
 
KCRG 281513Z 2815/2912 07011KT P6SM -SHRA SCT025 OVC040 
     TEMPO 2816/2818 SCT015 OVC025 
     FM281800 07012G20KT P6SM VCSH SCT030 BKN060 OVC200 
     FM290300 10009KT P6SM VCSH SCT020 SCT060 BKN200 
     PROB30 2906/2912 3SM +TSRA BR BKN025CB OVC100